createdAt,value
2019-03-03T00:02:19.838Z,41.33
2019-03-03T00:04:46.758Z,41.90
2019-03-03T00:07:13.241Z,43.55
2019-03-03T00:09:39.539Z,45.83
2019-03-03T00:12:05.898Z,45.73
2019-03-03T00:14:32.263Z,43.92
2019-03-03T00:16:58.712Z,42.65
2019-03-03T00:19:25.018Z,40.73
2019-03-03T00:21:51.472Z,40.63
2019-03-03T00:24:17.735Z,41.02
2019-03-03T00:26:44.125Z,38.60
2019-03-03T00:29:10.382Z,40.60
2019-03-03T00:31:38.225Z,38.78
2019-03-03T00:34:04.749Z,40.92
2019-03-03T00:36:49.549Z,40.23
2019-03-03T00:39:20.626Z,39.30
2019-03-03T00:41:48.785Z,41.05
2019-03-03T00:44:17.081Z,41.88
2019-03-03T00:46:45.361Z,40.05
2019-03-03T00:49:13.736Z,40.05
2019-03-03T00:51:44.786Z,42.00
2019-03-03T00:54:29.212Z,41.63
2019-03-03T00:57:00.308Z,41.48
2019-03-03T00:59:43.662Z,42.85
2019-03-03T01:02:11.816Z,40.52
2019-03-03T01:04:40.102Z,42.40
2019-03-03T01:07:24.787Z,41.02
2019-03-03T01:09:53.003Z,39.35
2019-03-03T01:12:35.930Z,41.18
2019-03-03T01:15:05.289Z,39.48
2019-03-03T01:17:33.634Z,39.53
2019-03-03T01:20:07.897Z,37.65
2019-03-03T01:22:42.129Z,38.75
2019-03-03T01:25:08.564Z,38.63
2019-03-03T01:27:35.030Z,37.95
2019-03-03T01:30:03.656Z,37.85
2019-03-03T01:32:30.030Z,38.23
2019-03-03T01:34:56.453Z,37.88
2019-03-03T01:37:22.713Z,37.30
2019-03-03T01:39:48.987Z,37.17
2019-03-03T01:42:18.511Z,37.42
2019-03-03T01:44:46.884Z,36.93
2019-03-03T01:47:13.152Z,36.77
2019-03-03T01:49:40.104Z,35.48
2019-03-03T01:52:06.370Z,33.30
2019-03-03T01:54:32.631Z,33.13
2019-03-03T01:56:59.110Z,33.50
2019-03-03T01:59:25.363Z,35.00
2019-03-03T02:01:51.944Z,31.57
2019-03-03T02:04:18.447Z,31.57
2019-03-03T02:06:44.899Z,31.85
2019-03-03T02:09:11.177Z,28.32
2019-03-03T02:11:37.819Z,28.55
2019-03-03T02:14:04.127Z,27.22
2019-03-03T02:16:30.379Z,28.15
2019-03-03T02:18:57.010Z,26.55
2019-03-03T02:21:23.475Z,26.20
2019-03-03T02:23:49.858Z,26.15
2019-03-03T02:26:16.247Z,26.48
2019-03-03T02:28:42.715Z,27.00
2019-03-03T02:31:11.273Z,25.27
2019-03-03T02:33:37.717Z,26.10
2019-03-03T02:36:04.168Z,27.00
2019-03-03T02:38:30.430Z,27.52
2019-03-03T02:40:56.972Z,26.27
2019-03-03T02:43:23.223Z,26.42
2019-03-03T02:45:49.614Z,26.73
2019-03-03T02:48:15.971Z,25.92
2019-03-03T02:50:42.256Z,25.55
2019-03-03T02:53:08.486Z,23.98
2019-03-03T02:55:34.978Z,25.00
2019-03-03T02:58:01.448Z,24.82
2019-03-03T03:00:27.888Z,22.98
2019-03-03T03:02:56.097Z,22.27
2019-03-03T03:05:29.801Z,21.70
2019-03-03T03:08:00.784Z,21.37
2019-03-03T03:10:28.987Z,20.30
2019-03-03T03:13:09.227Z,20.12
2019-03-03T03:15:46.452Z,19.85
2019-03-03T03:18:14.714Z,18.23
2019-03-03T03:20:55.178Z,18.50
2019-03-03T03:23:23.333Z,17.05
2019-03-03T03:25:51.640Z,15.80
2019-03-03T03:28:19.882Z,16.45
2019-03-03T03:30:53.842Z,15.78
2019-03-03T03:33:22.019Z,15.75
2019-03-03T03:35:56.981Z,14.63
2019-03-03T03:38:27.877Z,14.45
2019-03-03T03:40:56.045Z,13.70
2019-03-03T03:43:36.292Z,13.60
2019-03-03T03:46:21.056Z,11.68
2019-03-03T03:49:05.936Z,11.83
2019-03-03T03:51:54.980Z,12.03
2019-03-03T03:54:28.546Z,10.72
2019-03-03T03:57:02.714Z,11.35
2019-03-03T03:59:37.267Z,10.85
2019-03-03T04:02:05.629Z,10.23
2019-03-03T04:04:33.995Z,10.03
2019-03-03T04:07:08.269Z,9.85
2019-03-03T04:09:50.234Z,9.93
2019-03-03T04:12:36.929Z,9.18
2019-03-03T04:15:17.073Z,8.08
2019-03-03T04:17:48.020Z,7.87
2019-03-03T04:20:18.895Z,8.48
2019-03-03T04:23:05.268Z,7.10
2019-03-03T04:25:33.440Z,7.85
2019-03-03T04:28:04.372Z,8.48
2019-03-03T04:30:35.764Z,7.83
2019-03-03T04:33:06.900Z,8.10
2019-03-03T04:35:40.970Z,7.72
2019-03-03T04:38:09.122Z,8.33
2019-03-03T04:40:40.642Z,7.50
2019-03-03T04:43:08.807Z,7.87
2019-03-03T04:45:36.958Z,7.90
2019-03-03T04:48:08.710Z,7.85
2019-03-03T04:50:51.940Z,7.53
2019-03-03T04:53:25.952Z,7.85
2019-03-03T04:55:54.139Z,8.00
2019-03-03T04:58:28.564Z,6.80
2019-03-03T05:01:08.732Z,7.45
2019-03-03T05:03:36.989Z,7.60
2019-03-03T05:06:21.688Z,7.72
2019-03-03T05:08:49.903Z,6.95
2019-03-03T05:11:33.612Z,7.87
2019-03-03T05:14:01.806Z,8.08
2019-03-03T05:16:38.978Z,7.50
2019-03-03T05:19:07.200Z,7.42
2019-03-03T05:21:33.546Z,8.83
2019-03-03T05:23:59.993Z,8.05
2019-03-03T05:26:26.354Z,9.35
2019-03-03T05:28:52.626Z,8.75
2019-03-03T05:31:21.302Z,8.33
2019-03-03T05:33:49.846Z,9.03
2019-03-03T05:36:16.047Z,8.73
2019-03-03T05:38:42.416Z,8.08
2019-03-03T05:41:08.665Z,8.98
2019-03-03T05:43:36.214Z,8.78
2019-03-03T05:46:02.794Z,8.95
2019-03-03T05:48:29.213Z,9.28
2019-03-03T05:50:55.504Z,9.70
2019-03-03T05:53:21.855Z,10.60
2019-03-03T05:55:48.204Z,10.28
2019-03-03T05:58:17.336Z,10.75
2019-03-03T06:00:43.566Z,11.10
2019-03-03T06:03:11.264Z,11.78
2019-03-03T06:05:37.413Z,12.78
2019-03-03T06:08:03.684Z,12.82
2019-03-03T06:10:34.483Z,13.18
2019-03-03T06:13:00.714Z,12.78
2019-03-03T06:15:27.044Z,13.40
2019-03-03T06:17:53.342Z,12.93
2019-03-03T06:20:20.420Z,12.63
2019-03-03T06:22:46.655Z,14.80
2019-03-03T06:25:14.917Z,16.15
2019-03-03T06:27:41.260Z,15.85
2019-03-03T06:30:10.656Z,14.55
2019-03-03T06:32:37.022Z,15.58
2019-03-03T06:35:05.957Z,15.38
2019-03-03T06:37:34.152Z,16.00
2019-03-03T06:40:00.439Z,16.55
2019-03-03T06:42:26.960Z,15.18
2019-03-03T06:44:53.246Z,17.32
2019-03-03T06:47:19.506Z,17.07
2019-03-03T06:49:45.788Z,17.25
2019-03-03T06:52:12.048Z,16.85
2019-03-03T06:54:38.580Z,17.50
2019-03-03T06:57:04.961Z,16.12
2019-03-03T06:59:31.250Z,17.57
2019-03-03T07:01:57.551Z,16.57
2019-03-03T07:04:23.872Z,15.85
2019-03-03T07:06:52.456Z,15.98
2019-03-03T07:09:18.303Z,14.75
2019-03-03T07:11:44.574Z,16.20
2019-03-03T07:14:11.197Z,15.18
2019-03-03T07:16:37.558Z,15.78
2019-03-03T07:19:03.785Z,15.90
2019-03-03T07:21:30.136Z,13.62
2019-03-03T07:23:56.297Z,15.25
2019-03-03T07:26:22.651Z,15.32
2019-03-03T07:28:48.902Z,14.68
2019-03-03T07:31:15.194Z,15.95
2019-03-03T07:33:42.744Z,16.07
2019-03-03T07:36:09.127Z,15.05
2019-03-03T07:38:35.423Z,14.65
2019-03-03T07:41:01.725Z,15.55
2019-03-03T07:43:28.075Z,14.50
2019-03-03T07:45:54.371Z,15.65
2019-03-03T07:48:20.644Z,14.53
2019-03-03T07:50:46.911Z,15.43
2019-03-03T07:53:13.442Z,14.65
2019-03-03T07:55:39.810Z,15.25
2019-03-03T07:58:06.213Z,15.43
2019-03-03T08:00:32.705Z,15.10
2019-03-03T08:02:58.991Z,15.25
2019-03-03T08:05:25.384Z,15.78
2019-03-03T08:07:51.885Z,14.58
2019-03-03T08:10:18.278Z,13.62
2019-03-03T08:12:44.955Z,16.73
2019-03-03T08:15:16.181Z,14.00
2019-03-03T08:17:42.482Z,14.47
2019-03-03T08:20:10.489Z,14.07
2019-03-03T08:22:36.841Z,13.60
2019-03-03T08:25:06.069Z,14.20
2019-03-03T08:27:32.630Z,14.95
2019-03-03T08:29:59.010Z,14.38
2019-03-03T08:32:25.394Z,12.82
2019-03-03T08:34:53.292Z,14.38
2019-03-03T08:37:22.261Z,13.72
2019-03-03T08:39:48.633Z,13.15
2019-03-03T08:42:35.048Z,14.18
2019-03-03T08:45:19.927Z,14.60
2019-03-03T08:47:57.113Z,14.55
2019-03-03T08:50:31.524Z,14.25
2019-03-03T08:53:16.561Z,14.60
2019-03-03T08:55:50.488Z,13.55
2019-03-03T08:58:18.884Z,13.98
2019-03-03T09:00:47.073Z,12.55
2019-03-03T09:03:24.277Z,13.98
2019-03-03T09:05:57.222Z,14.70
2019-03-03T09:08:37.553Z,15.70
2019-03-03T09:11:05.931Z,14.87
2019-03-03T09:13:37.124Z,15.15
2019-03-03T09:16:05.416Z,13.48
2019-03-03T09:18:48.740Z,14.83
2019-03-03T09:21:25.938Z,15.35
2019-03-03T09:24:15.078Z,15.23
2019-03-03T09:26:43.296Z,14.80
2019-03-03T09:29:11.796Z,14.55
2019-03-03T09:31:40.106Z,13.13
2019-03-03T09:34:08.406Z,14.60
2019-03-03T09:36:45.611Z,14.33
2019-03-03T09:39:30.811Z,13.62
2019-03-03T09:42:02.107Z,12.68
2019-03-03T09:44:45.307Z,13.50
2019-03-03T09:47:28.766Z,12.45
2019-03-03T09:50:13.777Z,12.82
2019-03-03T09:52:42.569Z,12.68
2019-03-03T09:55:10.955Z,12.47
2019-03-03T09:57:45.205Z,12.82
2019-03-03T10:00:25.945Z,10.60
2019-03-03T10:02:56.842Z,11.55
2019-03-03T10:05:28.229Z,11.57
2019-03-03T10:07:59.139Z,12.10
2019-03-03T10:10:36.122Z,11.63
2019-03-03T10:13:04.540Z,12.47
2019-03-03T10:15:32.794Z,12.43
2019-03-03T10:18:05.977Z,11.25
2019-03-03T10:20:34.253Z,12.80
2019-03-03T10:23:14.717Z,11.97
2019-03-03T10:25:45.701Z,12.20
2019-03-03T10:28:13.959Z,13.00
2019-03-03T10:30:57.283Z,11.63
2019-03-03T10:33:31.504Z,11.80
2019-03-03T10:36:02.468Z,13.40
2019-03-03T10:38:36.072Z,13.35
2019-03-03T10:41:03.346Z,12.43
2019-03-03T10:43:37.571Z,12.70
2019-03-03T10:46:24.056Z,14.38
2019-03-03T10:48:55.333Z,14.47
2019-03-03T10:51:41.556Z,13.68
2019-03-03T10:54:09.945Z,14.85
2019-03-03T10:56:46.623Z,13.95
2019-03-03T10:59:14.955Z,14.93
2019-03-03T11:02:00.014Z,14.25
2019-03-03T11:04:30.413Z,14.10
2019-03-03T11:07:15.098Z,15.25
2019-03-03T11:10:03.050Z,15.10
2019-03-03T11:12:34.078Z,14.90
2019-03-03T11:15:18.199Z,13.75
2019-03-03T11:17:41.421Z,16.55
2019-03-03T11:20:12.873Z,17.17
2019-03-03T11:22:57.808Z,15.55
2019-03-03T11:25:31.762Z,15.35
2019-03-03T11:28:01.122Z,14.75
2019-03-03T11:30:39.491Z,15.32
2019-03-03T11:33:19.878Z,15.35
2019-03-03T11:35:54.055Z,15.50
2019-03-03T11:38:25.316Z,15.48
2019-03-03T11:40:53.640Z,15.43
2019-03-03T11:43:22.265Z,13.80
2019-03-03T11:46:06.923Z,12.80
2019-03-03T11:48:49.863Z,13.65
2019-03-03T11:51:27.305Z,11.63
2019-03-03T11:53:58.203Z,12.18
2019-03-03T11:56:29.100Z,10.23
2019-03-03T11:58:57.302Z,10.40
2019-03-03T12:01:42.475Z,11.40
2019-03-03T12:04:10.764Z,10.32
2019-03-03T12:06:48.159Z,10.40
2019-03-03T12:09:35.124Z,9.93
2019-03-03T12:12:19.961Z,11.05
2019-03-03T12:15:03.009Z,10.72
2019-03-03T12:17:31.557Z,11.25
2019-03-03T12:19:59.880Z,11.03
2019-03-03T12:22:30.860Z,9.75
2019-03-03T12:24:59.064Z,11.70
2019-03-03T12:27:30.256Z,11.35
2019-03-03T12:29:58.666Z,12.50
2019-03-03T12:32:28.656Z,11.08
2019-03-03T12:35:00.524Z,10.90
2019-03-03T12:37:31.807Z,12.03
2019-03-03T12:39:59.994Z,11.18
2019-03-03T12:42:28.397Z,10.28
2019-03-03T12:44:56.670Z,8.68
2019-03-03T12:47:41.843Z,10.40
2019-03-03T12:50:16.364Z,8.50
2019-03-03T12:52:50.294Z,9.43
2019-03-03T12:55:33.997Z,10.05
2019-03-03T12:58:11.425Z,9.50
2019-03-03T13:00:45.476Z,9.55
2019-03-03T13:03:25.562Z,9.83
2019-03-03T13:05:56.615Z,8.90
2019-03-03T13:08:41.328Z,8.20
2019-03-03T13:11:15.216Z,11.33
2019-03-03T13:13:49.380Z,9.63
2019-03-03T13:16:20.808Z,8.48
2019-03-03T13:19:05.518Z,10.35
2019-03-03T13:21:33.849Z,9.83
2019-03-03T13:24:20.344Z,8.83
2019-03-03T13:26:54.583Z,9.28
2019-03-03T13:29:31.934Z,10.23
2019-03-03T13:32:00.230Z,9.93
2019-03-03T13:34:37.387Z,10.28
2019-03-03T13:37:14.711Z,10.43
2019-03-03T13:39:49.092Z,10.50
2019-03-03T13:42:34.102Z,10.60
2019-03-03T13:45:04.088Z,9.40
2019-03-03T13:47:30.416Z,9.85
2019-03-03T13:49:57.083Z,10.10
2019-03-03T13:52:25.286Z,8.90
2019-03-03T13:54:51.997Z,9.08
2019-03-03T13:57:18.452Z,9.30
2019-03-03T13:59:44.962Z,8.95
2019-03-03T14:02:12.387Z,9.45
2019-03-03T14:04:39.499Z,9.50
2019-03-03T14:07:05.864Z,8.20
2019-03-03T14:09:32.291Z,8.55
2019-03-03T14:11:58.703Z,8.50
2019-03-03T14:14:24.987Z,7.45
2019-03-03T14:16:51.265Z,7.50
2019-03-03T14:19:17.666Z,7.42
2019-03-03T14:21:44.303Z,7.17
2019-03-03T14:24:10.768Z,6.80
2019-03-03T14:26:37.599Z,7.55
2019-03-03T14:29:03.926Z,5.85
2019-03-03T14:31:30.209Z,6.37
2019-03-03T14:33:56.684Z,6.55
2019-03-03T14:36:23.121Z,5.85
2019-03-03T14:38:49.587Z,5.55
2019-03-03T14:41:18.341Z,6.12
2019-03-03T14:43:47.839Z,5.40
2019-03-03T14:46:16.744Z,4.78
2019-03-03T14:48:43.177Z,4.62
2019-03-03T14:51:09.808Z,5.17
2019-03-03T14:53:36.069Z,4.80
2019-03-03T14:56:02.494Z,4.75
2019-03-03T14:58:31.626Z,5.08
2019-03-03T15:00:58.233Z,4.95
2019-03-03T15:03:24.705Z,5.60
2019-03-03T15:05:53.209Z,5.37
2019-03-03T15:08:19.553Z,5.78
2019-03-03T15:10:45.818Z,6.22
2019-03-03T15:13:12.274Z,6.22
2019-03-03T15:15:38.760Z,9.58
2019-03-03T15:18:05.264Z,8.65
2019-03-03T15:20:31.827Z,7.53
2019-03-03T15:22:58.605Z,7.83
2019-03-03T15:25:25.006Z,6.83
2019-03-03T15:27:51.599Z,6.85
2019-03-03T15:30:19.834Z,6.15
2019-03-03T15:32:46.303Z,6.55
2019-03-03T15:35:13.270Z,5.70
2019-03-03T15:37:41.548Z,7.97
2019-03-03T15:40:11.057Z,7.92
2019-03-03T15:42:37.631Z,7.42
2019-03-03T15:45:10.420Z,7.90
2019-03-03T15:47:36.900Z,5.60
2019-03-03T15:50:07.631Z,6.75
2019-03-03T15:52:34.123Z,7.10
2019-03-03T15:55:00.650Z,8.48
2019-03-03T15:57:27.146Z,5.80
2019-03-03T15:59:53.678Z,7.83
2019-03-03T16:02:20.083Z,7.08
2019-03-03T16:04:46.634Z,8.03
2019-03-03T16:07:13.067Z,7.40
2019-03-03T16:09:39.614Z,7.75
2019-03-03T16:12:07.943Z,7.50
2019-03-03T16:14:34.387Z,6.95
2019-03-03T16:17:01.077Z,8.63
2019-03-03T16:19:27.541Z,8.90
2019-03-03T16:21:54.240Z,8.90
2019-03-03T16:24:31.110Z,9.23
2019-03-03T16:27:08.259Z,10.00
2019-03-03T16:29:34.684Z,10.95
2019-03-03T16:32:01.091Z,8.00
2019-03-03T16:34:29.371Z,10.65
2019-03-03T16:36:55.688Z,9.80
2019-03-03T16:39:22.058Z,11.75
2019-03-03T16:41:48.397Z,10.20
2019-03-03T16:44:14.692Z,11.12
2019-03-03T16:46:41.130Z,11.18
2019-03-03T16:49:07.713Z,12.78
2019-03-03T16:51:34.170Z,11.75
2019-03-03T16:54:00.756Z,11.68
2019-03-03T16:56:27.461Z,10.35
2019-03-03T16:58:53.778Z,11.33
2019-03-03T17:01:20.268Z,11.35
2019-03-03T17:03:46.710Z,10.78
2019-03-03T17:06:19.166Z,11.33
2019-03-03T17:08:46.329Z,11.40
2019-03-03T17:11:12.612Z,11.97
2019-03-03T17:13:39.067Z,11.57
2019-03-03T17:16:05.474Z,10.13
2019-03-03T17:18:32.115Z,10.80
2019-03-03T17:20:58.704Z,11.35
2019-03-03T17:23:25.128Z,11.22
2019-03-03T17:25:51.783Z,11.70
2019-03-03T17:28:18.229Z,12.88
2019-03-03T17:30:44.678Z,33.65
2019-03-03T17:33:10.984Z,16.80
2019-03-03T17:35:40.856Z,19.23
2019-03-03T17:38:07.615Z,13.05
2019-03-03T17:40:33.991Z,12.68
2019-03-03T17:43:00.271Z,11.40
2019-03-03T17:45:26.823Z,11.15
2019-03-03T17:47:53.621Z,10.88
2019-03-03T17:50:27.535Z,11.57
2019-03-03T17:52:53.883Z,11.65
2019-03-03T17:55:20.651Z,13.18
2019-03-03T17:57:47.108Z,13.15
2019-03-03T18:00:17.021Z,13.50
2019-03-03T18:05:18.276Z,14.38
2019-03-03T18:07:44.777Z,14.63
2019-03-03T18:10:12.723Z,15.50
2019-03-03T18:12:39.090Z,13.80
2019-03-03T18:15:08.596Z,15.53
2019-03-03T18:17:35.087Z,15.70
2019-03-03T18:20:01.657Z,16.12
2019-03-03T18:22:28.209Z,16.77
2019-03-03T18:24:54.577Z,16.07
2019-03-03T18:27:22.934Z,16.45
2019-03-03T18:29:49.363Z,16.65
2019-03-03T18:32:16.171Z,16.70
2019-03-03T18:34:42.863Z,17.82
2019-03-03T18:37:09.447Z,18.35
2019-03-03T18:39:38.083Z,17.50
2019-03-03T18:42:04.606Z,19.05
2019-03-03T18:44:31.127Z,17.57
2019-03-03T18:46:59.619Z,17.92
2019-03-03T18:49:26.161Z,20.30
2019-03-03T18:51:52.561Z,19.20
2019-03-03T18:54:19.012Z,20.95
2019-03-03T18:56:45.394Z,20.12
2019-03-03T18:59:14.421Z,20.62
2019-03-03T19:01:41.162Z,18.23
2019-03-03T19:04:07.664Z,20.60
2019-03-03T19:06:34.980Z,20.32
2019-03-03T19:09:01.416Z,19.73
2019-03-03T19:11:27.750Z,20.17
2019-03-03T19:13:55.382Z,20.17
2019-03-03T19:16:21.934Z,19.12
2019-03-03T19:18:48.460Z,19.77
2019-03-03T19:21:14.788Z,19.15
2019-03-03T19:23:41.142Z,19.17
2019-03-03T19:26:07.418Z,17.98
2019-03-03T19:28:33.883Z,19.62
2019-03-03T19:31:00.284Z,19.75
2019-03-03T19:33:30.449Z,20.80
2019-03-03T19:35:56.986Z,21.42
2019-03-03T19:38:23.510Z,19.82
2019-03-03T19:40:50.024Z,20.72
2019-03-03T19:43:16.443Z,22.22
2019-03-03T19:45:46.357Z,20.70
2019-03-03T19:48:13.056Z,20.92
2019-03-03T19:50:39.585Z,23.05
2019-03-03T19:53:06.079Z,22.52
2019-03-03T19:55:32.551Z,23.83
2019-03-03T19:57:58.960Z,22.20
2019-03-03T20:00:35.357Z,24.47
2019-03-03T20:02:56.762Z,24.45
2019-03-03T20:05:23.215Z,26.82
2019-03-03T20:07:49.684Z,23.42
2019-03-03T20:10:18.744Z,24.57
2019-03-03T20:12:45.172Z,25.23
2019-03-03T20:15:11.522Z,26.48
2019-03-03T20:17:40.329Z,26.40
2019-03-03T20:20:13.010Z,26.82
2019-03-03T20:22:39.472Z,26.17
2019-03-03T20:25:07.083Z,24.82
2019-03-03T20:27:33.623Z,28.65
2019-03-03T20:30:00.384Z,25.95
2019-03-03T20:32:27.076Z,28.17
2019-03-03T20:34:53.377Z,26.80
2019-03-03T20:37:19.825Z,28.98
2019-03-03T20:39:46.187Z,26.90
2019-03-03T20:44:58.977Z,29.92
2019-03-03T20:47:25.507Z,30.90
2019-03-03T20:49:51.774Z,31.68
2019-03-03T20:52:18.346Z,32.42
2019-03-03T20:54:44.976Z,30.50
2019-03-03T20:57:11.576Z,30.82
2019-03-03T20:59:38.060Z,29.75
2019-03-03T21:02:06.567Z,25.15
2019-03-03T21:04:32.877Z,26.65
2019-03-03T21:06:59.249Z,28.75
2019-03-03T21:09:25.740Z,28.73
2019-03-03T21:11:52.203Z,29.77
2019-03-03T21:14:18.722Z,27.90
2019-03-03T21:16:45.508Z,27.48
2019-03-03T21:19:12.229Z,27.75
2019-03-03T21:21:38.786Z,29.55
2019-03-03T21:24:05.461Z,28.45
2019-03-03T21:26:33.948Z,26.07
2019-03-03T21:29:00.413Z,27.15
2019-03-03T21:31:27.114Z,27.67
2019-03-03T21:33:53.446Z,25.92
2019-03-03T21:36:19.871Z,24.12
2019-03-03T21:38:46.389Z,24.35
2019-03-03T21:41:13.017Z,25.27
2019-03-03T21:43:39.369Z,23.70
2019-03-03T21:46:06.068Z,23.52
2019-03-03T21:48:32.867Z,23.20
2019-03-03T21:50:59.235Z,22.50
2019-03-03T21:53:25.651Z,22.95
2019-03-03T21:55:53.208Z,21.27
2019-03-03T21:58:19.476Z,22.30
2019-03-03T22:00:45.824Z,20.52
2019-03-03T22:03:12.353Z,19.60
2019-03-03T22:05:38.816Z,19.55
2019-03-03T22:08:05.257Z,19.00
2019-03-03T22:10:32.723Z,18.82
2019-03-03T22:13:06.926Z,18.35
2019-03-03T22:15:33.596Z,16.67
2019-03-03T22:17:59.998Z,15.48
2019-03-03T22:20:26.416Z,16.77
2019-03-03T22:22:52.823Z,15.95
2019-03-03T22:25:19.089Z,15.32
2019-03-03T22:27:45.599Z,15.40
2019-03-03T22:30:14.747Z,14.98
2019-03-03T22:32:41.163Z,15.63
2019-03-03T22:35:07.869Z,15.70
2019-03-03T22:37:34.115Z,15.70
2019-03-03T22:40:00.379Z,14.53
2019-03-03T22:42:26.820Z,15.23
2019-03-03T22:44:53.323Z,14.87
2019-03-03T22:47:19.578Z,13.98
2019-03-03T22:49:45.875Z,14.30
2019-03-03T22:52:12.145Z,13.53
2019-03-03T22:54:40.985Z,13.62
2019-03-03T22:57:07.252Z,13.32
2019-03-03T22:59:33.658Z,13.30
2019-03-03T23:02:00.143Z,13.13
2019-03-03T23:04:51.574Z,12.85
2019-03-03T23:07:24.762Z,13.32
2019-03-03T23:10:00.712Z,12.53
2019-03-03T23:12:30.780Z,12.73
2019-03-03T23:15:06.646Z,12.20
2019-03-03T23:17:54.460Z,11.88
2019-03-03T23:20:30.646Z,11.50
2019-03-03T23:23:16.312Z,12.33
2019-03-03T23:25:52.331Z,12.68
2019-03-03T23:28:19.636Z,11.97
2019-03-03T23:30:46.593Z,12.15
2019-03-03T23:33:13.085Z,12.35
2019-03-03T23:35:39.378Z,11.85
2019-03-03T23:38:05.734Z,12.53
2019-03-03T23:40:32.110Z,12.90
2019-03-03T23:43:00.770Z,11.93
2019-03-03T23:45:27.116Z,13.60
2019-03-03T23:47:53.388Z,12.33
2019-03-03T23:50:19.634Z,12.18
2019-03-03T23:52:45.928Z,12.20
2019-03-03T23:55:12.312Z,11.65
2019-03-03T23:57:38.714Z,12.40
